createdAt,value
2023-01-26T00:00:10.592Z,25.47
2023-01-26T00:03:00.727Z,26.03
2023-01-26T00:05:29.095Z,24.80
2023-01-26T00:07:59.018Z,24.37
2023-01-26T00:10:27.467Z,26.00
2023-01-26T00:12:56.090Z,23.83
2023-01-26T00:15:24.589Z,25.73
2023-01-26T00:17:53.589Z,24.60
2023-01-26T00:20:23.288Z,24.43
2023-01-26T00:22:51.973Z,21.80
2023-01-26T00:25:20.609Z,25.00
2023-01-26T00:27:49.592Z,23.63
2023-01-26T00:30:18.209Z,24.27
2023-01-26T00:32:46.802Z,24.67
2023-01-26T00:35:15.189Z,24.33
2023-01-26T00:37:45.247Z,24.00
2023-01-26T00:40:16.731Z,24.00
2023-01-26T00:42:45.593Z,25.57
2023-01-26T00:45:13.909Z,25.57
2023-01-26T00:47:44.778Z,23.87
2023-01-26T00:50:13.301Z,22.87
2023-01-26T00:52:42.144Z,25.13
2023-01-26T00:55:11.991Z,24.43
2023-01-26T00:57:42.619Z,24.10
2023-01-26T01:00:15.032Z,24.17
2023-01-26T01:02:45.240Z,24.43
2023-01-26T01:05:13.619Z,23.37
2023-01-26T01:07:42.281Z,22.73
2023-01-26T01:10:12.866Z,24.17
2023-01-26T01:12:41.919Z,24.33
2023-01-26T01:15:10.951Z,24.00
2023-01-26T01:17:41.074Z,24.77
2023-01-26T01:20:12.886Z,26.43
2023-01-26T01:22:43.226Z,25.30
2023-01-26T01:25:13.993Z,23.27
2023-01-26T01:27:42.726Z,23.80
2023-01-26T01:30:12.952Z,23.97
2023-01-26T01:32:41.965Z,24.87
2023-01-26T01:35:10.735Z,24.37
2023-01-26T01:37:39.344Z,24.60
2023-01-26T01:40:12.519Z,25.27
2023-01-26T01:42:49.009Z,23.23
2023-01-26T01:45:40.581Z,24.03
2023-01-26T01:48:18.852Z,22.17
2023-01-26T01:50:47.653Z,24.20
2023-01-26T01:53:25.122Z,22.57
2023-01-26T01:55:59.175Z,21.67
2023-01-26T01:58:31.046Z,24.53
2023-01-26T02:00:59.969Z,23.37
2023-01-26T02:03:32.099Z,23.47
2023-01-26T02:06:06.064Z,22.80
2023-01-26T02:08:39.474Z,22.23
2023-01-26T02:11:10.401Z,22.50
2023-01-26T02:13:42.045Z,25.07
2023-01-26T02:16:10.501Z,21.60
2023-01-26T02:18:40.165Z,22.03
2023-01-26T02:21:10.837Z,22.77
2023-01-26T02:23:50.938Z,21.43
2023-01-26T02:26:23.621Z,20.77
2023-01-26T02:28:54.322Z,21.80
2023-01-26T02:31:24.548Z,21.87
2023-01-26T02:33:53.403Z,21.47
2023-01-26T02:36:25.194Z,20.00
2023-01-26T02:39:03.786Z,19.73
2023-01-26T02:41:51.374Z,20.47
2023-01-26T02:44:20.886Z,21.90
2023-01-26T02:46:49.235Z,20.83
2023-01-26T02:49:36.273Z,21.80
2023-01-26T02:52:06.910Z,22.57
2023-01-26T02:54:53.820Z,21.63
2023-01-26T02:57:23.828Z,22.43
2023-01-26T02:59:53.825Z,23.17
2023-01-26T03:02:22.760Z,22.80
2023-01-26T03:04:51.576Z,22.33
2023-01-26T03:07:21.314Z,21.47
2023-01-26T03:09:50.017Z,20.93
2023-01-26T03:12:18.547Z,23.47
2023-01-26T03:15:10.363Z,21.43
2023-01-26T03:17:38.956Z,21.83
2023-01-26T03:20:27.269Z,21.00
2023-01-26T03:23:13.412Z,22.60
2023-01-26T03:26:00.184Z,20.23
2023-01-26T03:28:30.332Z,20.03
2023-01-26T03:31:00.656Z,19.23
2023-01-26T03:33:31.660Z,21.17
2023-01-26T03:36:01.344Z,20.57
2023-01-26T03:38:31.152Z,22.43
2023-01-26T03:41:17.479Z,21.20
2023-01-26T03:44:03.256Z,21.73
2023-01-26T03:46:51.076Z,21.87
2023-01-26T03:49:36.678Z,21.90
2023-01-26T03:52:23.523Z,21.37
2023-01-26T03:55:09.853Z,21.87
2023-01-26T03:57:38.527Z,22.20
2023-01-26T04:00:08.205Z,21.73
2023-01-26T04:02:59.987Z,20.53
2023-01-26T04:05:46.066Z,20.80
2023-01-26T04:08:27.113Z,20.43
2023-01-26T04:11:01.159Z,19.90
2023-01-26T04:13:47.032Z,20.03
2023-01-26T04:16:40.073Z,21.53
2023-01-26T04:19:27.668Z,19.70
2023-01-26T04:21:56.384Z,19.83
2023-01-26T04:24:25.533Z,20.03
2023-01-26T04:26:57.553Z,19.57
2023-01-26T04:29:34.797Z,19.20
2023-01-26T04:32:03.259Z,20.37
2023-01-26T04:34:35.762Z,21.67
2023-01-26T04:37:10.603Z,18.77
2023-01-26T04:39:46.344Z,19.93
2023-01-26T04:42:14.757Z,21.37
2023-01-26T04:44:43.414Z,19.83
2023-01-26T04:47:11.996Z,18.73
2023-01-26T04:49:42.030Z,18.93
2023-01-26T04:52:10.491Z,17.80
2023-01-26T04:54:39.188Z,18.53
2023-01-26T04:57:08.742Z,17.43
2023-01-26T04:59:38.516Z,18.37
2023-01-26T05:02:06.839Z,18.60
2023-01-26T05:04:35.996Z,18.60
2023-01-26T05:07:06.643Z,20.33
2023-01-26T05:09:35.660Z,20.10
2023-01-26T05:12:37.337Z,19.40
2023-01-26T05:15:24.522Z,18.80
2023-01-26T05:18:10.870Z,19.80
2023-01-26T05:21:05.854Z,20.23
2023-01-26T05:23:42.159Z,19.90
2023-01-26T05:26:37.227Z,18.50
2023-01-26T05:29:09.710Z,19.13
2023-01-26T05:31:38.341Z,19.70
2023-01-26T05:34:07.629Z,20.23
2023-01-26T05:36:38.167Z,18.53
2023-01-26T05:39:09.232Z,18.13
2023-01-26T05:41:37.858Z,20.30
2023-01-26T05:44:25.778Z,20.37
2023-01-26T05:47:08.161Z,20.30
2023-01-26T05:49:38.704Z,20.77
2023-01-26T05:52:10.681Z,20.67
2023-01-26T05:54:42.495Z,21.83
2023-01-26T05:57:12.677Z,20.37
2023-01-26T05:59:46.099Z,22.97
2023-01-26T06:02:14.869Z,21.23
2023-01-26T06:04:46.188Z,19.87
2023-01-26T06:07:15.268Z,20.43
2023-01-26T06:10:05.901Z,21.57
2023-01-26T06:12:53.171Z,20.00
2023-01-26T06:15:47.556Z,20.43
2023-01-26T06:18:16.861Z,22.50
2023-01-26T06:20:51.639Z,24.13
2023-01-26T06:23:20.385Z,21.70
2023-01-26T06:25:51.806Z,21.93
2023-01-26T06:28:21.608Z,21.50
2023-01-26T06:30:50.484Z,20.93
2023-01-26T06:33:19.736Z,20.67
2023-01-26T06:35:48.196Z,22.53
2023-01-26T06:38:17.035Z,21.10
2023-01-26T06:40:46.248Z,18.50
2023-01-26T06:43:17.473Z,19.67
2023-01-26T06:45:47.522Z,21.00
2023-01-26T06:48:17.409Z,21.13
2023-01-26T06:50:46.497Z,20.03
2023-01-26T06:53:27.820Z,18.83
2023-01-26T06:56:16.501Z,16.70
2023-01-26T06:59:07.149Z,18.00
2023-01-26T07:02:04.736Z,19.53
2023-01-26T07:04:34.172Z,19.67
2023-01-26T07:07:02.536Z,19.10
2023-01-26T07:09:31.239Z,18.43
2023-01-26T07:11:59.636Z,17.77
2023-01-26T07:14:29.727Z,18.63
2023-01-26T07:16:58.100Z,17.13
2023-01-26T07:19:26.728Z,17.33
2023-01-26T07:21:55.017Z,16.17
2023-01-26T07:24:23.741Z,16.53
2023-01-26T07:26:52.562Z,15.80
2023-01-26T07:29:21.268Z,15.93
2023-01-26T07:31:51.102Z,15.97
2023-01-26T07:34:19.757Z,16.00
2023-01-26T07:36:48.097Z,16.43
2023-01-26T07:39:16.767Z,17.67
2023-01-26T07:41:45.255Z,16.17
2023-01-26T07:44:32.617Z,17.20
2023-01-26T07:47:02.421Z,17.50
2023-01-26T07:49:31.935Z,17.23
2023-01-26T07:52:00.371Z,17.10
2023-01-26T07:54:29.079Z,17.80
2023-01-26T07:56:57.459Z,17.83
2023-01-26T07:59:26.140Z,16.73
2023-01-26T08:01:54.788Z,17.50
2023-01-26T08:04:24.824Z,17.07
2023-01-26T08:06:53.714Z,16.67
2023-01-26T08:09:22.729Z,15.80
2023-01-26T08:11:51.332Z,17.13
2023-01-26T08:14:19.917Z,16.27
2023-01-26T08:16:48.718Z,17.13
2023-01-26T08:19:17.636Z,14.43
2023-01-26T08:21:47.385Z,14.97
2023-01-26T08:24:16.371Z,16.80
2023-01-26T08:26:44.854Z,14.60
2023-01-26T08:29:13.891Z,15.97
2023-01-26T08:31:42.238Z,14.43
2023-01-26T08:34:11.114Z,14.47
2023-01-26T08:36:40.726Z,12.73
2023-01-26T08:39:11.136Z,13.33
2023-01-26T08:41:39.957Z,14.10
2023-01-26T08:44:10.427Z,13.73
2023-01-26T08:46:38.888Z,16.50
2023-01-26T08:49:07.701Z,11.53
2023-01-26T08:51:36.105Z,11.80
2023-01-26T08:54:08.178Z,11.43
2023-01-26T08:56:38.039Z,11.63
2023-01-26T08:59:06.758Z,12.50
2023-01-26T09:01:35.139Z,13.00
2023-01-26T09:04:04.132Z,11.93
2023-01-26T09:06:33.145Z,12.50
2023-01-26T09:09:01.829Z,13.87
2023-01-26T09:11:30.215Z,14.67
2023-01-26T09:14:00.164Z,13.83
2023-01-26T09:16:28.543Z,13.50
2023-01-26T09:18:57.278Z,14.77
2023-01-26T09:21:26.073Z,13.50
2023-01-26T09:23:57.350Z,14.33
2023-01-26T09:26:25.875Z,14.57
2023-01-26T09:28:54.695Z,13.80
2023-01-26T09:31:24.656Z,14.07
2023-01-26T09:33:53.586Z,13.73
2023-01-26T09:36:22.020Z,13.23
2023-01-26T09:38:51.207Z,13.47
2023-01-26T09:41:33.664Z,12.73
2023-01-26T09:44:09.033Z,12.53
2023-01-26T09:46:50.369Z,13.47
2023-01-26T09:49:23.375Z,12.97
2023-01-26T09:52:00.646Z,12.13
2023-01-26T09:54:36.101Z,12.97
2023-01-26T09:57:13.375Z,12.83
2023-01-26T09:59:47.276Z,12.77
2023-01-26T10:02:30.882Z,12.20
2023-01-26T10:05:04.305Z,12.47
2023-01-26T10:07:32.914Z,12.97
2023-01-26T10:10:01.706Z,12.80
2023-01-26T10:12:32.929Z,13.20
2023-01-26T10:15:08.284Z,12.10
2023-01-26T10:17:41.900Z,10.60
2023-01-26T10:20:26.150Z,11.50
2023-01-26T10:22:56.802Z,11.23
2023-01-26T10:25:31.155Z,11.93
2023-01-26T10:27:59.653Z,13.57
2023-01-26T10:30:28.292Z,10.93
2023-01-26T10:32:58.397Z,10.73
2023-01-26T10:35:27.455Z,11.27
2023-01-26T10:37:56.324Z,10.63
2023-01-26T10:40:25.673Z,10.93
2023-01-26T10:42:58.749Z,11.43
2023-01-26T10:45:32.656Z,11.77
2023-01-26T10:48:07.899Z,13.37
2023-01-26T10:50:36.888Z,12.00
2023-01-26T10:53:06.615Z,12.27
2023-01-26T10:55:37.299Z,11.87
2023-01-26T10:58:05.752Z,12.90
2023-01-26T11:00:36.537Z,12.10
2023-01-26T11:03:18.513Z,12.83
2023-01-26T11:05:48.184Z,12.37
2023-01-26T11:08:32.821Z,11.77
2023-01-26T11:11:03.495Z,12.13
2023-01-26T11:13:32.000Z,12.37
2023-01-26T11:16:13.159Z,12.90
2023-01-26T11:18:56.822Z,13.87
2023-01-26T11:21:32.052Z,13.63
2023-01-26T11:24:06.291Z,12.20
2023-01-26T11:27:04.929Z,12.80
2023-01-26T11:29:48.596Z,11.57
2023-01-26T11:32:24.387Z,12.10
2023-01-26T11:35:06.419Z,12.70
2023-01-26T11:37:42.994Z,12.80
2023-01-26T11:40:27.482Z,13.83
2023-01-26T11:43:32.682Z,13.33
2023-01-26T11:46:24.202Z,13.37
2023-01-26T11:49:04.026Z,12.00
2023-01-26T11:51:48.702Z,12.17
2023-01-26T11:54:41.556Z,12.17
2023-01-26T11:57:21.814Z,12.27
2023-01-26T11:59:55.753Z,13.73
2023-01-26T12:02:31.338Z,13.00
2023-01-26T12:05:06.011Z,11.70
2023-01-26T12:07:54.484Z,12.10
2023-01-26T12:10:29.152Z,11.23
2023-01-26T12:13:02.191Z,12.43
2023-01-26T12:15:36.048Z,12.13
2023-01-26T12:18:15.347Z,12.03
2023-01-26T12:20:46.808Z,12.10
2023-01-26T12:23:28.612Z,12.63
2023-01-26T12:25:59.771Z,12.40
2023-01-26T12:28:32.610Z,11.67
2023-01-26T12:31:09.107Z,12.93
2023-01-26T12:33:38.791Z,13.10
2023-01-26T12:36:19.222Z,12.13
2023-01-26T12:39:04.541Z,12.33
2023-01-26T12:41:42.284Z,12.47
2023-01-26T12:44:26.461Z,12.53
2023-01-26T12:47:01.035Z,11.87
2023-01-26T12:49:35.203Z,12.03
2023-01-26T12:52:08.864Z,13.80
2023-01-26T12:54:45.441Z,13.17
2023-01-26T12:57:18.596Z,13.20
2023-01-26T12:59:49.161Z,13.63
2023-01-26T13:02:29.677Z,13.83
2023-01-26T13:04:59.735Z,14.23
2023-01-26T13:07:31.439Z,14.00
2023-01-26T13:10:24.110Z,13.63
2023-01-26T13:12:55.191Z,14.07
2023-01-26T13:15:25.108Z,13.20
2023-01-26T13:17:56.463Z,15.23
2023-01-26T13:20:42.037Z,13.77
2023-01-26T13:23:40.302Z,14.47
2023-01-26T13:26:22.400Z,13.37
2023-01-26T13:28:51.127Z,14.97
2023-01-26T13:31:35.617Z,13.43
2023-01-26T13:34:09.617Z,14.10
2023-01-26T13:36:43.418Z,14.10
2023-01-26T13:39:18.226Z,13.53
2023-01-26T13:41:49.142Z,13.60
2023-01-26T13:44:22.824Z,15.33
2023-01-26T13:46:55.812Z,15.13
2023-01-26T13:49:26.709Z,13.67
2023-01-26T13:51:55.531Z,14.10
2023-01-26T13:54:26.734Z,13.40
2023-01-26T13:57:04.863Z,16.40
2023-01-26T13:59:34.454Z,14.00
2023-01-26T14:02:03.129Z,14.97
2023-01-26T14:04:35.018Z,14.87
2023-01-26T14:07:07.792Z,16.57
2023-01-26T14:09:46.338Z,15.87
2023-01-26T14:12:23.694Z,13.57
2023-01-26T14:14:56.431Z,14.07
2023-01-26T14:17:30.096Z,15.20
2023-01-26T14:20:01.017Z,15.60
2023-01-26T14:22:29.668Z,14.97
2023-01-26T14:24:58.398Z,15.33
2023-01-26T14:27:36.657Z,15.37
2023-01-26T14:30:20.972Z,15.53
2023-01-26T14:32:50.036Z,16.63
2023-01-26T14:35:23.086Z,18.57
2023-01-26T14:37:52.035Z,18.93
2023-01-26T14:40:23.095Z,16.50
2023-01-26T14:42:54.738Z,15.27
2023-01-26T14:45:31.535Z,15.30
2023-01-26T14:48:04.192Z,15.47
2023-01-26T14:50:33.362Z,16.43
2023-01-26T14:53:04.121Z,15.97
2023-01-26T14:55:36.165Z,17.63
2023-01-26T14:58:16.800Z,16.93
2023-01-26T15:00:49.203Z,17.73
2023-01-26T15:03:28.193Z,19.93
2023-01-26T15:06:08.264Z,17.70
2023-01-26T15:08:37.568Z,17.53
2023-01-26T15:11:23.971Z,17.70
2023-01-26T15:13:56.489Z,18.80
2023-01-26T15:16:27.029Z,17.97
2023-01-26T15:19:02.974Z,17.90
2023-01-26T15:21:34.878Z,19.97
2023-01-26T15:24:05.608Z,16.73
2023-01-26T15:26:36.361Z,18.03
2023-01-26T15:29:16.597Z,19.70
2023-01-26T15:31:45.399Z,20.63
2023-01-26T15:34:32.415Z,20.20
2023-01-26T15:37:01.738Z,17.73
2023-01-26T15:39:30.346Z,18.73
2023-01-26T15:42:08.557Z,18.43
2023-01-26T15:44:38.273Z,17.20
2023-01-26T15:47:10.187Z,17.13
2023-01-26T15:49:38.712Z,17.63
2023-01-26T15:52:14.659Z,17.67
2023-01-26T15:54:43.299Z,16.73
2023-01-26T15:57:12.858Z,17.87
2023-01-26T15:59:42.674Z,16.63
2023-01-26T16:02:15.202Z,16.23
2023-01-26T16:04:44.935Z,16.93
2023-01-26T16:07:14.844Z,15.67
2023-01-26T16:09:43.747Z,15.70
2023-01-26T16:12:30.410Z,16.30
2023-01-26T16:15:01.744Z,15.07
2023-01-26T16:17:30.833Z,14.50
2023-01-26T16:20:00.240Z,11.97
2023-01-26T16:22:28.940Z,14.70
2023-01-26T16:24:57.335Z,15.93
2023-01-26T16:27:25.985Z,17.30
2023-01-26T16:29:54.331Z,14.40
2023-01-26T16:32:29.126Z,14.67
2023-01-26T16:34:57.490Z,15.27
2023-01-26T16:37:26.262Z,15.03
2023-01-26T16:39:54.630Z,16.37
2023-01-26T16:42:23.375Z,16.40
2023-01-26T16:44:51.918Z,14.53
2023-01-26T16:47:20.575Z,14.83
2023-01-26T16:49:50.420Z,14.73
2023-01-26T16:52:19.084Z,13.53
2023-01-26T16:54:48.323Z,16.20
2023-01-26T16:57:17.370Z,14.43
2023-01-26T16:59:45.884Z,15.33
2023-01-26T17:02:25.921Z,15.80
2023-01-26T17:04:55.929Z,15.63
2023-01-26T17:07:24.897Z,15.50
2023-01-26T17:09:53.267Z,15.47
2023-01-26T17:12:22.032Z,13.70
2023-01-26T17:14:50.559Z,14.70
2023-01-26T17:17:19.182Z,15.60
2023-01-26T17:19:47.795Z,14.27
2023-01-26T17:22:18.604Z,16.00
2023-01-26T17:24:46.945Z,20.90
2023-01-26T17:27:15.793Z,14.83
2023-01-26T17:29:44.968Z,13.43
2023-01-26T17:32:13.666Z,14.20
2023-01-26T17:34:42.045Z,13.67
2023-01-26T17:37:10.845Z,13.63
2023-01-26T17:39:40.528Z,13.23
2023-01-26T17:42:09.381Z,13.23
2023-01-26T17:44:37.980Z,13.97
2023-01-26T17:47:06.835Z,13.37
2023-01-26T17:49:35.211Z,13.77
2023-01-26T17:52:04.334Z,16.33
2023-01-26T17:54:32.977Z,14.47
2023-01-26T17:57:02.968Z,14.50
2023-01-26T17:59:31.331Z,15.80
2023-01-26T18:02:00.192Z,14.70
2023-01-26T18:04:31.273Z,16.10
2023-01-26T18:07:01.801Z,15.80
2023-01-26T18:09:30.464Z,15.70
2023-01-26T18:11:59.422Z,16.17
2023-01-26T18:14:29.254Z,15.47
2023-01-26T18:16:57.813Z,17.40
2023-01-26T18:19:26.234Z,15.97
2023-01-26T18:21:54.929Z,15.40
2023-01-26T18:24:23.263Z,14.43
2023-01-26T18:26:52.354Z,17.77
2023-01-26T18:29:20.734Z,14.30
2023-01-26T18:31:51.134Z,16.90
2023-01-26T18:34:19.605Z,16.53
2023-01-26T18:36:48.458Z,16.30
2023-01-26T18:39:18.573Z,17.77
2023-01-26T18:41:47.262Z,17.00
2023-01-26T18:44:15.636Z,16.50
2023-01-26T18:46:44.322Z,15.73
2023-01-26T18:49:14.167Z,15.60
2023-01-26T18:51:47.842Z,14.40
2023-01-26T18:54:16.837Z,15.27
2023-01-26T18:56:45.822Z,14.63
2023-01-26T18:59:14.560Z,15.60
2023-01-26T19:01:44.229Z,15.20
2023-01-26T19:04:15.990Z,14.83
2023-01-26T19:06:46.701Z,13.17
2023-01-26T19:09:15.539Z,16.30
2023-01-26T19:11:44.274Z,14.67
2023-01-26T19:14:12.725Z,14.23
2023-01-26T19:16:42.481Z,13.67
2023-01-26T19:19:13.116Z,13.53
2023-01-26T19:21:41.773Z,15.90
2023-01-26T19:24:10.524Z,15.00
2023-01-26T19:26:39.436Z,15.07
2023-01-26T19:29:07.909Z,15.00
2023-01-26T19:34:43.968Z,13.80
2023-01-26T19:37:12.752Z,13.80
2023-01-26T19:39:41.105Z,14.30
2023-01-26T19:42:09.812Z,15.30
2023-01-26T19:47:24.387Z,13.80
2023-01-26T19:49:54.215Z,14.83
2023-01-26T19:52:22.906Z,14.90
2023-01-26T19:54:51.280Z,13.83
2023-01-26T19:57:20.227Z,15.00
2023-01-26T19:59:48.985Z,16.17
2023-01-26T20:02:17.868Z,17.07
2023-01-26T20:04:46.490Z,15.10
2023-01-26T20:07:16.694Z,17.00
2023-01-26T20:09:45.150Z,15.67
2023-01-26T20:12:13.777Z,16.33
2023-01-26T20:14:42.306Z,16.47
2023-01-26T20:17:11.132Z,16.63
2023-01-26T20:19:39.540Z,16.17
2023-01-26T20:22:08.849Z,15.33
2023-01-26T20:24:40.245Z,17.23
2023-01-26T20:27:09.920Z,16.57
2023-01-26T20:29:38.529Z,16.67
2023-01-26T20:32:07.216Z,18.53
2023-01-26T20:34:36.219Z,16.60
2023-01-26T20:37:04.953Z,21.33
2023-01-26T20:39:34.297Z,21.63
2023-01-26T20:42:05.444Z,16.23
2023-01-26T20:44:34.649Z,16.53
2023-01-26T20:47:04.412Z,16.67
2023-01-26T20:49:33.292Z,16.47
2023-01-26T20:52:07.656Z,17.60
2023-01-26T20:54:36.755Z,16.47
2023-01-26T20:57:09.085Z,16.57
2023-01-26T20:59:37.501Z,17.67
2023-01-26T21:02:06.280Z,18.13
2023-01-26T21:04:34.647Z,18.13
2023-01-26T21:07:03.335Z,18.80
2023-01-26T21:09:32.239Z,16.10
2023-01-26T21:12:01.401Z,16.30
2023-01-26T21:14:31.165Z,16.73
2023-01-26T21:17:00.759Z,15.97
2023-01-26T21:19:29.541Z,15.30
2023-01-26T21:22:01.111Z,16.00
2023-01-26T21:24:29.758Z,15.50
2023-01-26T21:26:58.677Z,13.47
2023-01-26T21:29:27.315Z,16.73
2023-01-26T21:31:57.511Z,13.63
2023-01-26T21:34:26.009Z,16.20
2023-01-26T21:36:54.720Z,14.50
2023-01-26T21:39:23.161Z,15.00
2023-01-26T21:41:57.578Z,15.90
2023-01-26T21:44:27.280Z,14.13
2023-01-26T21:46:59.883Z,14.63
2023-01-26T21:49:29.570Z,14.97
2023-01-26T21:52:16.194Z,14.70
2023-01-26T21:54:44.618Z,14.07
2023-01-26T21:57:30.867Z,15.23
2023-01-26T21:59:59.828Z,15.73
2023-01-26T22:02:30.051Z,17.60
2023-01-26T22:04:58.583Z,15.67
2023-01-26T22:07:28.258Z,13.70
2023-01-26T22:09:56.872Z,16.57
2023-01-26T22:12:26.513Z,16.93
2023-01-26T22:14:56.308Z,14.67
2023-01-26T22:17:25.093Z,13.90
2023-01-26T22:19:56.202Z,15.83
2023-01-26T22:22:27.976Z,14.73
2023-01-26T22:24:56.393Z,15.07
2023-01-26T22:27:25.390Z,19.20
2023-01-26T22:29:53.905Z,16.03
2023-01-26T22:32:22.581Z,21.17
2023-01-26T22:34:51.145Z,19.23
2023-01-26T22:37:24.589Z,17.77
2023-01-26T22:39:53.149Z,17.27
2023-01-26T22:42:22.779Z,16.60
2023-01-26T22:44:51.201Z,16.53
2023-01-26T22:47:19.888Z,16.70
2023-01-26T22:49:48.227Z,15.67
2023-01-26T22:52:16.862Z,17.10
2023-01-26T22:54:46.657Z,14.80
2023-01-26T22:57:15.431Z,17.03
2023-01-26T22:59:43.861Z,17.47
2023-01-26T23:02:12.630Z,16.93
2023-01-26T23:04:41.113Z,21.37
2023-01-26T23:07:10.034Z,15.77
2023-01-26T23:09:38.470Z,15.33
2023-01-26T23:12:09.826Z,15.60
2023-01-26T23:14:38.410Z,14.37
2023-01-26T23:17:08.142Z,15.80
2023-01-26T23:19:36.550Z,15.50
2023-01-26T23:22:05.877Z,15.27
2023-01-26T23:24:34.273Z,15.53
2023-01-26T23:27:02.869Z,17.00
2023-01-26T23:29:32.648Z,16.00
2023-01-26T23:32:01.276Z,14.33
2023-01-26T23:34:29.665Z,15.23
2023-01-26T23:36:58.237Z,16.50
2023-01-26T23:39:26.540Z,15.00
2023-01-26T23:41:55.177Z,13.67
2023-01-26T23:44:23.508Z,14.47
2023-01-26T23:46:53.676Z,15.13
2023-01-26T23:49:22.063Z,13.20
2023-01-26T23:51:50.761Z,15.20
2023-01-26T23:54:19.146Z,14.57
2023-01-26T23:56:47.739Z,14.03
2023-01-26T23:59:16.188Z,14.27
